Time;durP1;ratioP1;P1;durP2;ratioP2;P2;SDS_P1;SDS_P2;PMS_P1;PMS_P2;Temp;Humidity;BMP_temperature;BMP_pressure;BME280_temperature;BME280_humidity;BME280_pressure;Samples;Min_cycle;Max_cycle;Signal;HPM_P1;HPM_P2
2022/12/28 00:02:21;;;;;;;12.25;7.38;;;;;;;;;;4994312;28;20506;-68
2022/12/28 00:04:47;;;;;;;13.80;7.40;;;;;;;;;;4994435;28;20030;-68
2022/12/28 00:07:12;;;;;;;12.18;6.93;;;;;;;;;;4994143;28;20054;-68
2022/12/28 00:09:38;;;;;;;13.10;6.75;;;;;;;;;;4994238;28;20101;-68
2022/12/28 00:12:03;;;;;;;13.65;7.32;;;;;;;;;;4994364;28;20467;-68
2022/12/28 00:14:29;;;;;;;14.93;6.75;;;;;;;;;;4994187;28;20391;-66
2022/12/28 00:16:55;;;;;;;11.77;6.60;;;;;;;;;;4994215;28;20019;-67
2022/12/28 00:19:21;;;;;;;15.00;6.57;;;;;;;;;;4994024;28;20058;-67
2022/12/28 00:21:47;;;;;;;11.65;5.88;;;;;;;;;;4993972;28;20399;-68
2022/12/28 00:24:24;;;;;;;13.77;6.70;;;;;;;;;;4994077;28;20014;-67
2022/12/28 00:26:50;;;;;;;12.52;6.38;;;;;;;;;;4994135;28;20357;-68
2022/12/28 00:29:16;;;;;;;11.73;7.15;;;;;;;;;;4996592;28;20037;-67
2022/12/28 00:31:41;;;;;;;13.63;7.07;;;;;;;;;;4992367;28;20079;-66
2022/12/28 00:34:07;;;;;;;13.35;6.95;;;;;;;;;;4990246;28;20455;-68
2022/12/28 00:36:32;;;;;;;12.73;6.15;;;;;;;;;;4989655;28;20499;-68
2022/12/28 00:38:58;;;;;;;13.25;7.10;;;;;;;;;;4985358;28;20038;-68
2022/12/28 00:41:23;;;;;;;14.82;6.35;;;;;;;;;;4988273;28;20068;-68
2022/12/28 00:43:49;;;;;;;13.48;6.03;;;;;;;;;;4987789;28;20046;-68
2022/12/28 00:46:15;;;;;;;16.10;7.13;;;;;;;;;;4987306;28;20037;-67
2022/12/28 00:48:40;;;;;;;12.18;6.78;;;;;;;;;;4994605;28;20026;-67
2022/12/28 00:51:14;;;;;;;13.13;6.75;;;;;;;;;;4993162;28;20031;-68
2022/12/28 00:53:40;;;;;;;17.38;6.45;;;;;;;;;;4990752;28;20566;-67
2022/12/28 00:56:12;;;;;;;14.80;7.43;;;;;;;;;;4992929;28;20109;-67
2022/12/28 00:58:38;;;;;;;16.60;6.65;;;;;;;;;;4993446;28;20034;-68
2022/12/28 01:01:04;;;;;;;13.80;7.88;;;;;;;;;;4992863;28;20037;-67
2022/12/28 01:03:29;;;;;;;13.20;7.50;;;;;;;;;;4992722;28;20085;-68
2022/12/28 01:05:55;;;;;;;13.20;7.13;;;;;;;;;;4992656;28;20054;-66
2022/12/28 01:08:20;;;;;;;10.98;5.72;;;;;;;;;;4992679;28;20014;-66
2022/12/28 01:10:46;;;;;;;13.63;7.30;;;;;;;;;;4993535;28;20014;-67
2022/12/28 01:13:11;;;;;;;19.00;8.23;;;;;;;;;;4992582;28;20022;-65
2022/12/28 01:15:37;;;;;;;10.77;5.80;;;;;;;;;;4992759;28;20022;-66
2022/12/28 01:18:03;;;;;;;13.40;7.53;;;;;;;;;;4992541;28;20034;-68
2022/12/28 01:20:28;;;;;;;11.80;6.90;;;;;;;;;;4992296;28;20030;-67
2022/12/28 01:22:54;;;;;;;11.55;6.68;;;;;;;;;;4993540;28;20037;-67
2022/12/28 01:25:19;;;;;;;11.18;5.88;;;;;;;;;;4993236;28;20049;-66
2022/12/28 01:27:45;;;;;;;17.42;7.03;;;;;;;;;;4999818;28;20032;-68
2022/12/28 01:30:13;;;;;;;12.48;5.82;;;;;;;;;;5012806;28;20084;-68
2022/12/28 01:32:38;;;;;;;10.60;5.65;;;;;;;;;;5012724;28;20041;-68
2022/12/28 01:35:04;;;;;;;11.63;6.20;;;;;;;;;;5012567;28;20026;-68
2022/12/28 01:37:29;;;;;;;13.50;7.07;;;;;;;;;;5011072;28;20026;-68
2022/12/28 01:39:55;;;;;;;15.65;6.50;;;;;;;;;;4992980;28;20030;-68
2022/12/28 01:42:20;;;;;;;12.57;7.22;;;;;;;;;;4993048;28;20484;-69
2022/12/28 01:44:48;;;;;;;18.90;6.82;;;;;;;;;;5009399;28;20057;-68
2022/12/28 01:47:17;;;;;;;11.02;6.43;;;;;;;;;;5012621;28;20026;-68
2022/12/28 01:49:57;;;;;;;9.70;5.97;;;;;;;;;;4995111;28;20029;-67
2022/12/28 01:52:35;;;;;;;17.75;6.35;;;;;;;;;;4991873;28;20369;-68
2022/12/28 01:55:09;;;;;;;11.82;6.45;;;;;;;;;;5011959;28;20041;-68
2022/12/28 01:57:40;;;;;;;13.02;6.68;;;;;;;;;;5012658;28;20048;-68
2022/12/28 02:00:10;;;;;;;12.43;6.20;;;;;;;;;;4996518;28;20133;-68
2022/12/28 02:02:36;;;;;;;13.35;6.70;;;;;;;;;;4990846;28;20052;-68
2022/12/28 02:05:02;;;;;;;10.35;5.15;;;;;;;;;;5010548;28;20444;-67
2022/12/28 02:08:09;;;;;;;12.57;6.35;;;;;;;;;;5003804;28;20057;-68
2022/12/28 02:10:36;;;;;;;15.07;6.20;;;;;;;;;;5006165;28;20038;-68
2022/12/28 02:13:03;;;;;;;14.52;6.50;;;;;;;;;;4996496;28;20034;-68
2022/12/28 02:15:28;;;;;;;12.18;5.47;;;;;;;;;;5000085;28;20030;-67
2022/12/28 02:17:55;;;;;;;8.73;5.05;;;;;;;;;;5015812;28;20026;-67
2022/12/28 02:20:24;;;;;;;10.43;5.60;;;;;;;;;;5014967;28;20116;-67
2022/12/28 02:23:17;;;;;;;11.05;4.80;;;;;;;;;;4996357;28;20066;-66
2022/12/28 02:25:57;;;;;;;9.20;5.20;;;;;;;;;;4999480;28;20471;-67
2022/12/28 02:28:48;;;;;;;13.53;5.73;;;;;;;;;;5015694;28;20061;-67
2022/12/28 02:31:24;;;;;;;10.60;5.32;;;;;;;;;;5015722;28;20026;-66
2022/12/28 02:34:12;;;;;;;10.55;5.15;;;;;;;;;;5015765;28;20124;-67
2022/12/28 02:36:44;;;;;;;10.68;5.72;;;;;;;;;;5013623;28;20368;-66
2022/12/28 02:39:19;;;;;;;13.68;6.45;;;;;;;;;;4995972;28;20061;-66
2022/12/28 02:41:46;;;;;;;9.13;5.25;;;;;;;;;;5011882;28;20033;-68
2022/12/28 02:50:04;;;;;;;11.88;5.13;;;;;;;;;;5002785;28;20097;-67
2022/12/28 02:52:38;;;;;;;11.05;4.85;;;;;;;;;;5015374;28;20092;-67
2022/12/28 02:58:05;;;;;;;9.32;5.18;;;;;;;;;;4995919;28;20048;-67
2022/12/28 03:00:46;;;;;;;7.72;4.20;;;;;;;;;;4995163;28;20042;-67
2022/12/28 03:03:49;;;;;;;10.30;4.45;;;;;;;;;;4995544;28;20419;-66
2022/12/28 03:09:26;;;;;;;10.45;4.28;;;;;;;;;;5001952;28;20048;-67
2022/12/28 03:12:19;;;;;;;8.98;4.05;;;;;;;;;;5011420;28;20450;-67
2022/12/28 03:14:56;;;;;;;8.23;4.32;;;;;;;;;;4995403;28;20094;-67
2022/12/28 03:31:26;;;;;;;7.78;4.22;;;;;;;;;;5014719;28;20566;-66
2022/12/28 03:34:05;;;;;;;6.43;3.83;;;;;;;;;;5014541;28;20030;-65
2022/12/28 03:37:15;;;;;;;9.20;4.47;;;;;;;;;;4975571;28;20058;-67
2022/12/28 03:39:47;;;;;;;14.45;3.65;;;;;;;;;;4965830;28;20038;-67
2022/12/28 03:45:22;;;;;;;5.65;3.33;;;;;;;;;;4988895;28;20077;-68
2022/12/28 03:47:49;;;;;;;6.10;3.33;;;;;;;;;;4980131;28;20439;-68
2022/12/28 03:50:16;;;;;;;9.85;4.15;;;;;;;;;;4992759;28;20422;-68
2022/12/28 03:52:42;;;;;;;8.35;4.38;;;;;;;;;;4983264;28;20479;-68
2022/12/28 03:55:10;;;;;;;8.27;3.67;;;;;;;;;;4973233;28;20062;-69
2022/12/28 03:57:35;;;;;;;6.13;3.55;;;;;;;;;;4973249;28;20472;-69
2022/12/28 04:00:01;;;;;;;7.65;3.72;;;;;;;;;;4990373;28;20121;-69
2022/12/28 04:02:26;;;;;;;6.72;3.38;;;;;;;;;;4992380;28;20041;-68
2022/12/28 04:04:52;;;;;;;10.45;3.00;;;;;;;;;;4975808;28;20113;-69
2022/12/28 04:07:17;;;;;;;6.40;2.78;;;;;;;;;;4987307;28;20031;-69
2022/12/28 04:09:42;;;;;;;6.35;2.92;;;;;;;;;;4980936;28;20050;-68
2022/12/28 04:12:08;;;;;;;7.30;3.22;;;;;;;;;;4980436;28;20038;-69
2022/12/28 04:14:33;;;;;;;5.72;2.83;;;;;;;;;;4972571;28;20038;-67
2022/12/28 04:16:59;;;;;;;6.30;2.65;;;;;;;;;;5010449;28;20056;-68
2022/12/28 04:19:24;;;;;;;9.85;3.40;;;;;;;;;;5013848;28;20091;-69
2022/12/28 04:21:50;;;;;;;6.20;3.72;;;;;;;;;;5003299;28;20105;-69
2022/12/28 04:24:15;;;;;;;5.55;2.85;;;;;;;;;;4994130;28;20106;-69
2022/12/28 04:26:40;;;;;;;7.35;3.00;;;;;;;;;;4994056;28;20353;-69
2022/12/28 04:29:06;;;;;;;6.18;2.97;;;;;;;;;;5011863;28;20045;-68
2022/12/28 04:31:31;;;;;;;7.15;2.80;;;;;;;;;;5013640;28;20022;-68
2022/12/28 04:33:57;;;;;;;4.97;2.47;;;;;;;;;;5013367;28;20030;-69
2022/12/28 04:36:23;;;;;;;7.70;2.92;;;;;;;;;;4999259;28;20022;-68
2022/12/28 04:38:49;;;;;;;7.22;2.90;;;;;;;;;;5009804;28;20366;-68
2022/12/28 04:41:14;;;;;;;10.02;3.55;;;;;;;;;;4998469;28;20026;-68
2022/12/28 04:43:40;;;;;;;4.03;2.40;;;;;;;;;;5013042;28;20045;-69
2022/12/28 04:46:10;;;;;;;5.65;2.88;;;;;;;;;;4998396;28;20022;-67
2022/12/28 04:48:35;;;;;;;5.80;3.33;;;;;;;;;;4993740;28;20026;-68
2022/12/28 04:51:30;;;;;;;7.20;2.97;;;;;;;;;;4997453;28;20364;-68
2022/12/28 04:53:56;;;;;;;6.85;3.05;;;;;;;;;;4999244;28;20430;-69
2022/12/28 04:56:24;;;;;;;2.47;1.80;;;;;;;;;;5013033;28;20087;-68
2022/12/28 04:58:59;;;;;;;4.13;2.88;;;;;;;;;;4997329;28;20023;-68
2022/12/28 05:01:25;;;;;;;9.40;3.22;;;;;;;;;;4993596;28;20022;-66
2022/12/28 05:03:52;;;;;;;8.85;3.40;;;;;;;;;;5002055;28;20040;-68
2022/12/28 05:06:20;;;;;;;5.97;2.88;;;;;;;;;;5000660;28;20441;-68
2022/12/28 05:08:46;;;;;;;12.85;2.65;;;;;;;;;;5009363;28;20459;-68
2022/12/28 05:11:21;;;;;;;8.57;3.35;;;;;;;;;;4980509;28;20026;-68
2022/12/28 05:13:47;;;;;;;6.82;2.67;;;;;;;;;;5012931;28;20531;-67
2022/12/28 05:16:16;;;;;;;10.98;3.45;;;;;;;;;;4998048;28;20066;-66
2022/12/28 05:18:41;;;;;;;4.40;2.15;;;;;;;;;;4993180;28;20030;-66
2022/12/28 05:21:10;;;;;;;9.07;3.67;;;;;;;;;;4997926;28;20071;-66
2022/12/28 05:23:37;;;;;;;6.65;3.38;;;;;;;;;;5012977;28;20375;-67
2022/12/28 05:26:08;;;;;;;7.38;3.35;;;;;;;;;;5012767;28;20634;-68
2022/12/28 05:28:33;;;;;;;;;;;;;;;;;;4998879;28;20076;-68
2022/12/28 05:31:00;;;;;;;5.07;2.95;;;;;;;;;;5012889;28;20008;-68
2022/12/28 05:33:28;;;;;;;7.25;3.33;;;;;;;;;;5012706;28;20030;-67
2022/12/28 05:35:54;;;;;;;9.13;3.38;;;;;;;;;;4998702;28;20085;-68
2022/12/28 05:38:19;;;;;;;8.30;3.00;;;;;;;;;;5009105;28;20029;-67
2022/12/28 05:40:44;;;;;;;7.35;3.42;;;;;;;;;;5000505;28;20026;-68
2022/12/28 05:43:10;;;;;;;5.28;3.45;;;;;;;;;;5016550;28;20049;-67
2022/12/28 05:45:35;;;;;;;6.85;3.50;;;;;;;;;;4998936;28;20093;-67
2022/12/28 05:48:01;;;;;;;7.65;3.30;;;;;;;;;;4996885;28;20022;-68
2022/12/28 05:50:26;;;;;;;5.53;3.30;;;;;;;;;;5003774;28;20060;-67
2022/12/28 05:52:51;;;;;;;7.13;3.80;;;;;;;;;;5016549;28;20432;-69
2022/12/28 05:55:17;;;;;;;7.53;3.38;;;;;;;;;;5016373;28;20030;-69
2022/12/28 05:57:42;;;;;;;5.03;3.25;;;;;;;;;;4997563;28;20109;-68
2022/12/28 06:00:08;;;;;;;7.95;3.60;;;;;;;;;;4996736;28;20026;-68
2022/12/28 06:02:33;;;;;;;4.60;3.25;;;;;;;;;;5003556;28;20033;-66
2022/12/28 06:04:59;;;;;;;6.80;3.50;;;;;;;;;;5010796;28;20023;-67
2022/12/28 06:07:24;;;;;;;9.82;4.03;;;;;;;;;;5005134;28;20029;-69
2022/12/28 06:09:50;;;;;;;10.13;4.00;;;;;;;;;;5003627;28;20395;-69
2022/12/28 06:12:15;;;;;;;7.25;3.60;;;;;;;;;;5011919;28;20479;-68
2022/12/28 06:14:41;;;;;;;8.43;3.60;;;;;;;;;;5001480;28;20022;-69
2022/12/28 06:17:06;;;;;;;9.02;3.40;;;;;;;;;;4996278;28;20035;-68
2022/12/28 06:19:31;;;;;;;10.60;3.20;;;;;;;;;;4998841;28;20045;-69
2022/12/28 06:21:57;;;;;;;9.55;3.67;;;;;;;;;;5014642;28;20127;-67
2022/12/28 06:24:22;;;;;;;6.07;3.67;;;;;;;;;;5015593;28;20113;-69
2022/12/28 06:26:48;;;;;;;5.25;2.97;;;;;;;;;;5001449;28;20030;-68
2022/12/28 06:29:14;;;;;;;7.78;3.65;;;;;;;;;;5005244;28;20037;-68
2022/12/28 06:31:45;;;;;;;13.77;4.30;;;;;;;;;;5015824;28;20383;-69
2022/12/28 06:34:11;;;;;;;5.47;2.45;;;;;;;;;;5015746;28;20083;-68
2022/12/28 06:36:42;;;;;;;5.07;3.13;;;;;;;;;;4999906;28;20130;-68
2022/12/28 06:39:09;;;;;;;7.05;3.00;;;;;;;;;;4983328;28;20116;-68
2022/12/28 06:41:35;;;;;;;5.47;3.17;;;;;;;;;;5007937;28;20045;-69
2022/12/28 06:44:05;;;;;;;10.38;3.80;;;;;;;;;;5006743;28;20034;-68
2022/12/28 06:46:30;;;;;;;9.65;3.08;;;;;;;;;;5015492;28;20022;-68
2022/12/28 06:48:56;;;;;;;8.60;3.63;;;;;;;;;;5014801;28;20033;-69
2022/12/28 06:51:27;;;;;;;8.70;3.65;;;;;;;;;;4994540;28;20037;-67
2022/12/28 06:53:53;;;;;;;5.88;2.88;;;;;;;;;;4995613;28;20042;-68
2022/12/28 06:56:24;;;;;;;6.47;3.80;;;;;;;;;;5009386;28;20426;-69
2022/12/28 06:58:50;;;;;;;12.98;4.28;;;;;;;;;;5015309;28;20479;-69
2022/12/28 07:01:18;;;;;;;7.22;3.88;;;;;;;;;;4998696;28;20038;-68
2022/12/28 07:03:45;;;;;;;10.52;4.28;;;;;;;;;;5001913;28;20022;-68
2022/12/28 07:06:13;;;;;;;6.38;3.70;;;;;;;;;;5004772;28;20030;-68
2022/12/28 07:08:38;;;;;;;5.93;2.15;;;;;;;;;;5009036;28;20108;-67
2022/12/28 07:11:07;;;;;;;6.55;3.33;;;;;;;;;;4998699;28;20030;-68
2022/12/28 07:13:33;;;;;;;6.80;3.38;;;;;;;;;;5015053;28;20050;-68
2022/12/28 07:16:08;;;;;;;4.00;2.40;;;;;;;;;;5014917;28;20053;-68
2022/12/28 07:18:34;;;;;;;5.28;2.85;;;;;;;;;;4995437;28;20471;-68
2022/12/28 07:21:09;;;;;;;8.70;2.92;;;;;;;;;;5011302;28;20072;-68
2022/12/28 07:23:34;;;;;;;7.50;3.20;;;;;;;;;;5000824;28;20076;-67
2022/12/28 07:26:06;;;;;;;9.05;2.95;;;;;;;;;;5005321;28;20026;-67
2022/12/28 07:28:31;;;;;;;6.90;2.78;;;;;;;;;;5003466;28;20021;-68
2022/12/28 07:30:57;;;;;;;6.35;3.13;;;;;;;;;;5014620;28;20026;-67
2022/12/28 07:33:22;;;;;;;10.70;2.85;;;;;;;;;;5014559;28;20029;-68
2022/12/28 07:35:47;;;;;;;6.85;3.38;;;;;;;;;;5014585;28;20390;-67
2022/12/28 07:38:13;;;;;;;5.22;3.13;;;;;;;;;;5014285;28;20446;-66
2022/12/28 07:40:38;;;;;;;9.48;3.13;;;;;;;;;;5004049;28;20038;-68
2022/12/28 07:43:04;;;;;;;3.35;1.90;;;;;;;;;;4994637;28;20050;-67
2022/12/28 07:45:29;;;;;;;4.72;2.53;;;;;;;;;;4994895;28;20038;-67
2022/12/28 07:47:55;;;;;;;8.75;2.90;;;;;;;;;;5012445;28;20368;-67
2022/12/28 07:50:20;;;;;;;5.57;2.53;;;;;;;;;;5000270;28;20026;-66
2022/12/28 07:52:45;;;;;;;5.03;2.30;;;;;;;;;;5010539;28;20375;-68
2022/12/28 07:55:12;;;;;;;4.35;2.47;;;;;;;;;;4998802;28;20026;-66
2022/12/28 07:57:37;;;;;;;7.10;2.78;;;;;;;;;;5006150;28;20041;-65
2022/12/28 08:00:05;;;;;;;6.70;3.00;;;;;;;;;;4994515;28;20030;-66
2022/12/28 08:02:31;;;;;;;4.35;2.70;;;;;;;;;;4996266;28;20080;-67
2022/12/28 08:04:57;;;;;;;6.57;3.28;;;;;;;;;;5013857;28;20022;-67
2022/12/28 08:07:22;;;;;;;7.80;3.13;;;;;;;;;;5014093;28;20096;-66
2022/12/28 08:09:48;;;;;;;3.83;2.42;;;;;;;;;;4999858;28;20026;-65
2022/12/28 08:12:13;;;;;;;10.55;2.58;;;;;;;;;;4994376;28;20023;-67
2022/12/28 08:14:38;;;;;;;4.95;2.17;;;;;;;;;;4997476;28;20380;-67
2022/12/28 08:17:04;;;;;;;5.90;2.63;;;;;;;;;;5013823;28;20455;-66
2022/12/28 08:19:29;;;;;;;5.45;2.70;;;;;;;;;;5004353;28;20038;-67
2022/12/28 08:21:55;;;;;;;4.55;2.58;;;;;;;;;;5006492;28;20022;-66
2022/12/28 08:24:20;;;;;;;6.53;2.85;;;;;;;;;;4997526;28;20072;-68
2022/12/28 08:26:47;;;;;;;6.88;2.40;;;;;;;;;;5009975;28;20018;-68
2022/12/28 08:29:18;;;;;;;10.70;5.22;;;;;;;;;;5002800;28;20518;-67
2022/12/28 08:31:44;;;;;;;4.60;2.58;;;;;;;;;;5013545;28;20384;-67
2022/12/28 08:34:14;;;;;;;9.32;2.90;;;;;;;;;;5013366;28;20034;-67
2022/12/28 08:36:39;;;;;;;7.50;2.53;;;;;;;;;;5011670;28;20030;-67
2022/12/28 08:39:05;;;;;;;7.97;3.05;;;;;;;;;;4993630;28;20032;-67
2022/12/28 08:41:32;;;;;;;4.95;2.17;;;;;;;;;;4993457;28;20377;-67
2022/12/28 08:43:58;;;;;;;6.78;2.92;;;;;;;;;;5004546;28;20045;-70
2022/12/28 08:46:28;;;;;;;7.35;3.88;;;;;;;;;;4999532;28;20036;-68
2022/12/28 08:48:55;;;;;;;7.68;2.30;;;;;;;;;;5001815;28;20061;-68
2022/12/28 08:51:29;;;;;;;4.82;2.15;;;;;;;;;;5012977;28;20116;-68
2022/12/28 08:53:54;;;;;;;6.20;2.88;;;;;;;;;;5010890;28;20030;-67
2022/12/28 08:56:26;;;;;;;7.75;2.85;;;;;;;;;;4993541;28;20049;-67
2022/12/28 08:58:53;;;;;;;6.72;2.88;;;;;;;;;;4993494;28;20373;-68
2022/12/28 09:01:24;;;;;;;5.57;2.63;;;;;;;;;;4983798;28;20037;-68
2022/12/28 09:03:52;;;;;;;4.00;2.10;;;;;;;;;;4973920;28;20062;-68
2022/12/28 09:06:24;;;;;;;5.15;2.38;;;;;;;;;;4977372;28;20085;-67
2022/12/28 09:08:51;;;;;;;6.10;2.60;;;;;;;;;;4974081;28;20035;-68
2022/12/28 09:11:17;;;;;;;6.85;3.00;;;;;;;;;;4993175;28;20233;-68
2022/12/28 09:13:42;;;;;;;3.97;1.80;;;;;;;;;;5011047;28;20124;-66
2022/12/28 09:16:11;;;;;;;4.20;1.80;;;;;;;;;;5008202;28;20025;-66
2022/12/28 09:18:38;;;;;;;5.50;2.30;;;;;;;;;;5012661;28;20030;-67
2022/12/28 09:21:14;;;;;;;6.18;2.47;;;;;;;;;;5004003;28;20036;-68
2022/12/28 09:23:40;;;;;;;5.70;2.63;;;;;;;;;;4993203;28;20550;-67
2022/12/28 09:26:16;;;;;;;3.15;1.63;;;;;;;;;;4992863;28;20373;-65
2022/12/28 09:28:47;;;;;;;4.60;2.40;;;;;;;;;;4991533;28;20034;-67
2022/12/28 09:31:13;;;;;;;5.88;2.63;;;;;;;;;;4995244;28;20391;-65
2022/12/28 09:36:22;;;;;;;9.57;3.03;;;;;;;;;;4993048;28;20100;-65
2022/12/28 09:38:49;;;;;;;7.40;2.75;;;;;;;;;;4993996;28;20453;-65
2022/12/28 09:41:21;;;;;;;3.83;2.60;;;;;;;;;;4995106;28;20023;-65
2022/12/28 09:43:50;;;;;;;7.60;3.47;;;;;;;;;;4993680;28;20066;-67
2022/12/28 09:46:20;;;;;;;7.30;2.70;;;;;;;;;;4993857;28;20574;-67
2022/12/28 09:48:52;;;;;;;7.10;3.45;;;;;;;;;;4993798;28;20030;-67
2022/12/28 09:51:20;;;;;;;9.10;2.97;;;;;;;;;;4994111;28;20022;-67
2022/12/28 09:53:45;;;;;;;5.70;2.95;;;;;;;;;;4993816;28;20058;-67
2022/12/28 09:56:28;;;;;;;11.85;3.17;;;;;;;;;;4993893;28;20132;-68
2022/12/28 09:58:54;;;;;;;7.68;3.20;;;;;;;;;;4993337;28;20026;-67
2022/12/28 10:01:21;;;;;;;8.57;3.92;;;;;;;;;;4995079;28;20023;-68
2022/12/28 10:03:47;;;;;;;6.55;3.15;;;;;;;;;;4993675;28;20049;-68
2022/12/28 10:06:26;;;;;;;9.45;3.60;;;;;;;;;;4993790;28;20388;-68
2022/12/28 10:08:57;;;;;;;9.13;3.92;;;;;;;;;;4992981;28;20018;-68
2022/12/28 10:11:31;;;;;;;9.02;3.80;;;;;;;;;;4994691;28;20014;-68
2022/12/28 10:13:58;;;;;;;8.35;3.53;;;;;;;;;;4993714;28;20022;-67
2022/12/28 10:16:31;;;;;;;13.02;3.40;;;;;;;;;;4993456;28;20026;-67
2022/12/28 10:18:57;;;;;;;4.28;2.88;;;;;;;;;;4993555;28;20034;-68
2022/12/28 10:21:27;;;;;;;6.43;3.47;;;;;;;;;;4995132;28;20021;-68
2022/12/28 10:23:55;;;;;;;4.43;3.17;;;;;;;;;;4993706;28;20101;-67
2022/12/28 10:26:20;;;;;;;7.05;4.05;;;;;;;;;;4993702;28;20768;-68
2022/12/28 10:28:50;;;;;;;9.50;4.40;;;;;;;;;;4996975;28;20050;-66
2022/12/28 10:31:33;;;;;;;8.18;3.92;;;;;;;;;;4998269;28;20033;-68
2022/12/28 10:33:58;;;;;;;7.80;3.00;;;;;;;;;;4994404;28;20109;-66
2022/12/28 10:36:24;;;;;;;8.23;2.75;;;;;;;;;;4996940;28;20433;-66
2022/12/28 10:38:54;;;;;;;7.50;3.53;;;;;;;;;;4996954;28;20101;-68
2022/12/28 10:41:21;;;;;;;9.90;3.80;;;;;;;;;;4997402;28;20022;-68
2022/12/28 10:43:51;;;;;;;5.72;2.85;;;;;;;;;;4996810;28;20141;-68
2022/12/28 10:46:22;;;;;;;8.15;3.08;;;;;;;;;;4996689;28;20022;-69
2022/12/28 10:48:57;;;;;;;7.70;3.33;;;;;;;;;;4996852;28;20058;-69
2022/12/28 10:51:25;;;;;;;9.55;3.90;;;;;;;;;;4997625;28;20098;-69
2022/12/28 10:53:56;;;;;;;10.32;4.10;;;;;;;;;;4996543;28;20026;-69
2022/12/28 10:56:24;;;;;;;6.95;3.95;;;;;;;;;;4994347;28;20538;-69
2022/12/28 10:58:52;;;;;;;13.60;3.97;;;;;;;;;;4996349;28;20096;-68
2022/12/28 11:01:24;;;;;;;9.60;5.03;;;;;;;;;;4996604;28;20475;-68
2022/12/28 11:03:59;;;;;;;9.48;4.18;;;;;;;;;;5013559;28;20037;-69
2022/12/28 11:06:27;;;;;;;10.50;4.95;;;;;;;;;;5013465;28;20137;-70
2022/12/28 11:09:16;;;;;;;9.85;4.15;;;;;;;;;;5015279;28;20033;-68
2022/12/28 11:11:44;;;;;;;10.07;4.93;;;;;;;;;;5014601;28;20061;-69
2022/12/28 11:14:33;;;;;;;12.23;5.60;;;;;;;;;;5014040;28;20040;-69
2022/12/28 11:17:29;;;;;;;9.88;3.60;;;;;;;;;;5015018;28;20125;-69
2022/12/28 11:20:00;;;;;;;8.27;3.85;;;;;;;;;;5005625;28;20042;-69
2022/12/28 11:22:28;;;;;;;10.63;4.50;;;;;;;;;;5013386;28;20100;-68
2022/12/28 11:24:55;;;;;;;5.70;3.40;;;;;;;;;;5013445;28;20021;-69
2022/12/28 11:27:22;;;;;;;6.03;2.97;;;;;;;;;;5013187;28;20030;-69
2022/12/28 11:29:50;;;;;;;7.68;3.83;;;;;;;;;;5012806;28;20128;-69
2022/12/28 11:32:28;;;;;;;5.90;3.25;;;;;;;;;;5013214;28;20101;-67
2022/12/28 11:34:55;;;;;;;7.45;3.72;;;;;;;;;;5013857;28;20036;-69
2022/12/28 11:37:20;;;;;;;7.97;3.42;;;;;;;;;;5013916;28;20022;-69
2022/12/28 11:39:51;;;;;;;7.90;3.95;;;;;;;;;;5014500;28;20544;-69
2022/12/28 11:42:31;;;;;;;7.82;2.38;;;;;;;;;;5014439;28;20064;-69
2022/12/28 11:44:57;;;;;;;;;;;;;;;;;;5015076;28;20034;-67
2022/12/28 11:47:32;;;;;;;7.38;2.88;;;;;;;;;;5014529;28;20439;-69
2022/12/28 11:50:40;;;;;;;10.25;4.00;;;;;;;;;;5014301;28;20081;-70
2022/12/28 11:53:31;;;;;;;5.53;2.65;;;;;;;;;;5013076;28;20022;-68
2022/12/28 11:56:02;;;;;;;5.10;3.00;;;;;;;;;;5014517;28;20483;-69
2022/12/28 11:58:41;;;;;;;4.90;2.80;;;;;;;;;;5014146;28;20553;-69
2022/12/28 12:01:46;;;;;;;5.38;2.55;;;;;;;;;;5014141;28;20148;-69
2022/12/28 12:04:18;;;;;;;4.45;2.90;;;;;;;;;;5014109;28;20092;-69
2022/12/28 12:06:44;;;;;;;6.90;2.50;;;;;;;;;;5014082;28;20032;-68
2022/12/28 12:09:24;;;;;;;7.10;2.95;;;;;;;;;;5014055;28;20387;-69
2022/12/28 12:11:52;;;;;;;7.60;3.53;;;;;;;;;;5013839;28;20029;-69
2022/12/28 12:14:27;;;;;;;4.38;2.58;;;;;;;;;;5014066;28;20109;-69
2022/12/28 12:17:01;;;;;;;4.55;2.53;;;;;;;;;;5014078;28;20021;-68
2022/12/28 12:19:37;;;;;;;4.97;2.60;;;;;;;;;;5013900;28;20033;-66
2022/12/28 12:22:15;;;;;;;8.57;2.75;;;;;;;;;;5012536;28;20458;-66
2022/12/28 12:24:59;;;;;;;5.90;2.75;;;;;;;;;;5013992;28;20356;-66
2022/12/28 12:27:37;;;;;;;7.97;2.97;;;;;;;;;;5013565;28;20033;-67
2022/12/28 12:30:13;;;;;;;4.55;2.60;;;;;;;;;;5012278;28;20029;-67
2022/12/28 12:32:51;;;;;;;4.30;2.40;;;;;;;;;;5013565;28;20022;-66
2022/12/28 12:35:20;;;;;;;6.43;2.90;;;;;;;;;;5013600;28;20080;-67
2022/12/28 12:37:58;;;;;;;8.25;2.70;;;;;;;;;;5013544;28;20026;-69
2022/12/28 12:40:35;;;;;;;3.97;2.90;;;;;;;;;;5013111;28;20387;-69
2022/12/28 12:43:19;;;;;;;4.75;2.75;;;;;;;;;;5013307;28;20410;-68
2022/12/28 12:45:50;;;;;;;5.68;3.15;;;;;;;;;;5013492;28;20037;-69
2022/12/28 12:48:31;;;;;;;4.82;2.65;;;;;;;;;;5013563;28;20026;-69
2022/12/28 12:51:15;;;;;;;;;;;;;;;;;;5013831;28;20494;-68
2022/12/28 12:53:50;;;;;;;4.53;2.50;;;;;;;;;;5013314;28;19913;-68
2022/12/28 12:56:36;;;;;;;6.22;3.20;;;;;;;;;;5013404;28;20034;-69
2022/12/28 12:59:20;;;;;;;3.10;2.13;;;;;;;;;;4991221;28;20062;-69
2022/12/28 13:01:57;;;;;;;6.78;2.75;;;;;;;;;;4991449;28;20515;-69
2022/12/28 13:04:30;;;;;;;6.90;3.00;;;;;;;;;;4991554;28;20042;-69
2022/12/28 13:06:59;;;;;;;5.25;2.90;;;;;;;;;;4991484;28;20030;-69
2022/12/28 13:09:29;;;;;;;4.22;2.10;;;;;;;;;;4991306;28;20113;-69
2022/12/28 13:11:55;;;;;;;8.10;3.13;;;;;;;;;;4991239;28;20038;-69
2022/12/28 13:14:22;;;;;;;9.98;3.15;;;;;;;;;;4991429;28;20038;-69
2022/12/28 13:16:53;;;;;;;5.68;3.10;;;;;;;;;;4991320;28;20069;-69
2022/12/28 13:19:22;;;;;;;3.83;2.67;;;;;;;;;;4991165;28;20034;-69
2022/12/28 13:21:49;;;;;;;4.70;2.60;;;;;;;;;;4991351;28;20542;-69
2022/12/28 13:24:34;;;;;;;6.40;3.05;;;;;;;;;;4991119;28;20035;-69
2022/12/28 13:27:00;;;;;;;5.07;2.40;;;;;;;;;;4987643;28;20027;-68
2022/12/28 13:29:37;;;;;;;4.97;2.67;;;;;;;;;;4982324;28;20047;-67
2022/12/28 13:32:03;;;;;;;4.35;2.83;;;;;;;;;;4989670;28;20186;-67
2022/12/28 13:34:33;;;;;;;4.90;2.47;;;;;;;;;;4991219;28;20103;-69
2022/12/28 13:37:00;;;;;;;;;;;;;;;;;;5010153;28;20434;-70
2022/12/28 13:39:30;;;;;;;7.82;3.15;;;;;;;;;;5003317;28;20278;-69
2022/12/28 13:41:58;;;;;;;4.72;2.63;;;;;;;;;;4994087;28;20042;-69
2022/12/28 13:44:37;;;;;;;4.95;2.72;;;;;;;;;;4992891;28;20045;-67
2022/12/28 13:47:14;;;;;;;3.95;2.20;;;;;;;;;;4994137;28;20392;-68
2022/12/28 13:49:52;;;;;;;5.47;2.50;;;;;;;;;;5008928;28;20375;-66
2022/12/28 13:52:26;;;;;;;3.78;2.30;;;;;;;;;;5000171;28;20108;-67
2022/12/28 13:54:56;;;;;;;4.03;2.40;;;;;;;;;;4997488;28;20157;-67
2022/12/28 13:57:23;;;;;;;4.80;2.70;;;;;;;;;;5001889;28;20117;-68
2022/12/28 13:59:51;;;;;;;4.40;2.20;;;;;;;;;;4999301;28;20479;-66
2022/12/28 14:02:19;;;;;;;4.82;2.50;;;;;;;;;;5012560;28;20032;-67
2022/12/28 14:04:47;;;;;;;5.93;2.67;;;;;;;;;;5000561;28;20066;-69
2022/12/28 14:07:15;;;;;;;4.20;2.45;;;;;;;;;;5007919;28;20392;-68
2022/12/28 14:09:42;;;;;;;7.15;2.70;;;;;;;;;;5007933;28;20087;-68
2022/12/28 14:12:08;;;;;;;8.80;2.58;;;;;;;;;;5000483;28;20392;-68
2022/12/28 14:14:35;;;;;;;9.90;3.00;;;;;;;;;;5012547;28;20027;-70
2022/12/28 14:17:01;;;;;;;6.22;2.35;;;;;;;;;;5002435;28;20472;-68
2022/12/28 14:19:28;;;;;;;5.95;2.60;;;;;;;;;;5005623;28;20066;-67
2022/12/28 14:21:53;;;;;;;6.10;2.67;;;;;;;;;;5009257;28;20022;-69
2022/12/28 14:24:19;;;;;;;6.05;2.35;;;;;;;;;;4999349;28;20356;-67
2022/12/28 14:26:56;;;;;;;6.35;2.72;;;;;;;;;;5011434;28;20025;-68
2022/12/28 14:29:34;;;;;;;3.83;2.40;;;;;;;;;;5006110;28;20030;-66
2022/12/28 14:32:03;;;;;;;5.65;2.28;;;;;;;;;;5001187;28;20037;-68
2022/12/28 14:34:30;;;;;;;3.95;2.40;;;;;;;;;;5000569;28;20034;-69
2022/12/28 14:36:57;;;;;;;3.70;1.98;;;;;;;;;;5006663;28;20034;-69
2022/12/28 14:39:36;;;;;;;3.17;2.13;;;;;;;;;;5000922;28;20042;-66
2022/12/28 14:42:17;;;;;;;5.30;2.33;;;;;;;;;;4983248;28;20034;-66
2022/12/28 14:44:42;;;;;;;2.65;1.95;;;;;;;;;;5006361;28;20037;-66
2022/12/28 14:47:33;;;;;;;4.30;2.30;;;;;;;;;;5008170;28;20034;-68
2022/12/28 14:50:00;;;;;;;3.75;2.35;;;;;;;;;;4997762;28;20028;-65
2022/12/28 14:53:07;;;;;;;6.25;4.10;;;;;;;;;;5007946;28;20031;-67
2022/12/28 14:56:05;;;;;;;2.70;1.77;;;;;;;;;;5010860;28;20030;-66
2022/12/28 14:58:55;;;;;;;4.80;2.45;;;;;;;;;;4991061;28;20112;-66
2022/12/28 15:01:24;;;;;;;3.55;2.17;;;;;;;;;;5001005;28;20030;-66
2022/12/28 15:03:55;;;;;;;5.05;2.50;;;;;;;;;;5011601;28;20081;-65
2022/12/28 15:06:24;;;;;;;5.57;2.70;;;;;;;;;;5001227;28;20355;-66
2022/12/28 15:08:51;;;;;;;4.32;2.60;;;;;;;;;;5004846;28;20026;-66
2022/12/28 15:11:18;;;;;;;5.65;2.80;;;;;;;;;;5008566;28;20030;-65
2022/12/28 15:13:44;;;;;;;7.68;2.50;;;;;;;;;;4998120;28;20070;-65
2022/12/28 15:16:11;;;;;;;6.32;2.42;;;;;;;;;;5010463;28;20064;-65
2022/12/28 15:18:43;;;;;;;4.35;2.20;;;;;;;;;;5003481;28;20040;-66
2022/12/28 15:21:11;;;;;;;7.60;2.30;;;;;;;;;;5001736;28;20030;-66
2022/12/28 15:23:36;;;;;;;4.35;2.40;;;;;;;;;;4994476;28;20053;-66
2022/12/28 15:26:22;;;;;;;8.82;2.58;;;;;;;;;;4993241;28;20056;-65
2022/12/28 15:28:47;;;;;;;3.85;2.10;;;;;;;;;;4998584;28;20068;-65
2022/12/28 15:31:16;;;;;;;4.97;3.00;;;;;;;;;;5008847;28;20061;-65